sensor_id;sensor_type;location;lat;lon;timestamp;temperature;humidity
63219;DHT22;49320;52.512;13.448;2023-02-12T00:01:17;11.00;86.80
63219;DHT22;49320;52.512;13.448;2023-02-12T00:03:45;11.00;86.60
63219;DHT22;49320;52.512;13.448;2023-02-12T00:06:12;10.90;86.50
63219;DHT22;49320;52.512;13.448;2023-02-12T00:08:41;10.90;86.60
63219;DHT22;49320;52.512;13.448;2023-02-12T00:11:11;10.90;86.80
63219;DHT22;49320;52.512;13.448;2023-02-12T00:13:40;10.90;86.90
63219;DHT22;49320;52.512;13.448;2023-02-12T00:16:09;10.90;86.40
63219;DHT22;49320;52.512;13.448;2023-02-12T00:18:39;10.80;86.90
63219;DHT22;49320;52.512;13.448;2023-02-12T00:21:06;10.90;86.90
63219;DHT22;49320;52.512;13.448;2023-02-12T00:23:35;10.90;87.00
63219;DHT22;49320;52.512;13.448;2023-02-12T00:26:07;10.90;86.90
63219;DHT22;49320;52.512;13.448;2023-02-12T00:28:40;10.80;87.00
63219;DHT22;49320;52.512;13.448;2023-02-12T00:31:09;10.90;86.80
63219;DHT22;49320;52.512;13.448;2023-02-12T00:33:40;11.00;86.90
63219;DHT22;49320;52.512;13.448;2023-02-12T00:36:08;10.90;87.00
63219;DHT22;49320;52.512;13.448;2023-02-12T00:38:38;10.90;86.80
63219;DHT22;49320;52.512;13.448;2023-02-12T00:41:05;10.90;86.60
63219;DHT22;49320;52.512;13.448;2023-02-12T00:43:32;10.80;86.50
63219;DHT22;49320;52.512;13.448;2023-02-12T00:45:58;10.80;86.60
63219;DHT22;49320;52.512;13.448;2023-02-12T00:48:25;10.80;86.50
63219;DHT22;49320;52.512;13.448;2023-02-12T00:50:52;10.80;86.60
63219;DHT22;49320;52.512;13.448;2023-02-12T00:53:19;10.80;86.50
63219;DHT22;49320;52.512;13.448;2023-02-12T00:55:46;10.80;86.50
63219;DHT22;49320;52.512;13.448;2023-02-12T00:58:12;10.80;86.60
63219;DHT22;49320;52.512;13.448;2023-02-12T01:00:39;10.80;86.60
63219;DHT22;49320;52.512;13.448;2023-02-12T01:03:06;10.70;86.70
63219;DHT22;49320;52.512;13.448;2023-02-12T01:05:33;10.70;86.70
63219;DHT22;49320;52.512;13.448;2023-02-12T01:08:00;10.80;86.90
63219;DHT22;49320;52.512;13.448;2023-02-12T01:10:27;10.80;86.80
63219;DHT22;49320;52.512;13.448;2023-02-12T01:12:54;10.70;86.70
63219;DHT22;49320;52.512;13.448;2023-02-12T01:15:22;10.70;86.80
63219;DHT22;49320;52.512;13.448;2023-02-12T01:17:53;10.80;86.70
63219;DHT22;49320;52.512;13.448;2023-02-12T01:20:22;10.80;86.80
63219;DHT22;49320;52.512;13.448;2023-02-12T01:22:50;10.80;86.80
63219;DHT22;49320;52.512;13.448;2023-02-12T01:25:18;10.80;86.80
63219;DHT22;49320;52.512;13.448;2023-02-12T01:27:46;10.80;86.70
63219;DHT22;49320;52.512;13.448;2023-02-12T01:30:14;10.80;86.70
63219;DHT22;49320;52.512;13.448;2023-02-12T01:32:42;10.80;86.70
63219;DHT22;49320;52.512;13.448;2023-02-12T01:35:09;10.70;86.70
63219;DHT22;49320;52.512;13.448;2023-02-12T01:37:36;10.70;86.50
63219;DHT22;49320;52.512;13.448;2023-02-12T01:40:06;10.80;86.60
63219;DHT22;49320;52.512;13.448;2023-02-12T01:42:34;10.80;86.60
63219;DHT22;49320;52.512;13.448;2023-02-12T01:47:42;10.80;86.70
63219;DHT22;49320;52.512;13.448;2023-02-12T01:50:13;10.80;86.50
63219;DHT22;49320;52.512;13.448;2023-02-12T01:52:47;10.80;86.50
63219;DHT22;49320;52.512;13.448;2023-02-12T01:55:19;10.70;86.50
63219;DHT22;49320;52.512;13.448;2023-02-12T01:57:48;10.70;86.30
63219;DHT22;49320;52.512;13.448;2023-02-12T02:00:19;10.50;86.80
63219;DHT22;49320;52.512;13.448;2023-02-12T02:02:56;10.70;86.00
63219;DHT22;49320;52.512;13.448;2023-02-12T02:05:49;10.70;86.60
63219;DHT22;49320;52.512;13.448;2023-02-12T02:08:48;10.70;86.70
63219;DHT22;49320;52.512;13.448;2023-02-12T02:11:15;10.70;86.40
63219;DHT22;49320;52.512;13.448;2023-02-12T02:16:59;10.70;85.70
63219;DHT22;49320;52.512;13.448;2023-02-12T02:20:06;10.70;86.60
63219;DHT22;49320;52.512;13.448;2023-02-12T02:23:04;10.70;86.60
63219;DHT22;49320;52.512;13.448;2023-02-12T02:34:37;10.60;85.90
63219;DHT22;49320;52.512;13.448;2023-02-12T02:37:14;10.60;86.20
63219;DHT22;49320;52.512;13.448;2023-02-12T02:43:15;10.50;86.30
63219;DHT22;49320;52.512;13.448;2023-02-12T02:45:51;11.40;87.20
63219;DHT22;49320;52.512;13.448;2023-02-12T02:48:31;10.50;86.40
63219;DHT22;49320;52.512;13.448;2023-02-12T02:51:10;10.50;86.40
63219;DHT22;49320;52.512;13.448;2023-02-12T02:53:46;10.50;86.60
63219;DHT22;49320;52.512;13.448;2023-02-12T02:56:18;10.50;86.30
63219;DHT22;49320;52.512;13.448;2023-02-12T02:58:54;10.40;86.30
63219;DHT22;49320;52.512;13.448;2023-02-12T03:01:37;11.30;87.00
63219;DHT22;49320;52.512;13.448;2023-02-12T03:04:17;10.40;86.80
63219;DHT22;49320;52.512;13.448;2023-02-12T03:09:52;10.40;86.90
63219;DHT22;49320;52.512;13.448;2023-02-12T03:12:40;10.40;86.70
63219;DHT22;49320;52.512;13.448;2023-02-12T03:15:16;10.50;87.10
63219;DHT22;49320;52.512;13.448;2023-02-12T03:17:49;10.40;86.80
63219;DHT22;49320;52.512;13.448;2023-02-12T03:20:23;10.60;87.30
63219;DHT22;49320;52.512;13.448;2023-02-12T03:25:58;10.40;87.10
63219;DHT22;49320;52.512;13.448;2023-02-12T03:28:33;10.40;87.00
63219;DHT22;49320;52.512;13.448;2023-02-12T03:31:09;10.20;86.70
63219;DHT22;49320;52.512;13.448;2023-02-12T03:37:00;10.40;86.70
63219;DHT22;49320;52.512;13.448;2023-02-12T03:42:33;10.40;87.00
63219;DHT22;49320;52.512;13.448;2023-02-12T03:45:07;10.40;86.50
63219;DHT22;49320;52.512;13.448;2023-02-12T03:50:43;10.40;87.00
63219;DHT22;49320;52.512;13.448;2023-02-12T03:53:17;10.40;86.70
63219;DHT22;49320;52.512;13.448;2023-02-12T03:55:47;10.40;86.50
63219;DHT22;49320;52.512;13.448;2023-02-12T03:58:20;10.40;86.50
63219;DHT22;49320;52.512;13.448;2023-02-12T04:00:52;10.40;86.40
63219;DHT22;49320;52.512;13.448;2023-02-12T04:03:19;10.40;86.40
63219;DHT22;49320;52.512;13.448;2023-02-12T04:05:46;10.30;86.40
63219;DHT22;49320;52.512;13.448;2023-02-12T04:08:13;10.30;86.30
63219;DHT22;49320;52.512;13.448;2023-02-12T04:11:08;10.30;86.40
63219;DHT22;49320;52.512;13.448;2023-02-12T04:16:50;10.20;86.40
63219;DHT22;49320;52.512;13.448;2023-02-12T04:19:53;10.30;87.30
63219;DHT22;49320;52.512;13.448;2023-02-12T04:28:16;10.20;86.10
63219;DHT22;49320;52.512;13.448;2023-02-12T04:34:17;10.20;86.50
63219;DHT22;49320;52.512;13.448;2023-02-12T04:37:11;10.10;88.30
63219;DHT22;49320;52.512;13.448;2023-02-12T04:39:45;10.20;85.90
63219;DHT22;49320;52.512;13.448;2023-02-12T04:42:14;10.10;86.50
63219;DHT22;49320;52.512;13.448;2023-02-12T04:44:43;10.10;86.50
63219;DHT22;49320;52.512;13.448;2023-02-12T04:47:14;10.10;86.80
63219;DHT22;49320;52.512;13.448;2023-02-12T04:52:09;10.00;86.10
63219;DHT22;49320;52.512;13.448;2023-02-12T04:54:36;10.00;86.70
63219;DHT22;49320;52.512;13.448;2023-02-12T04:57:03;10.00;86.80
63219;DHT22;49320;52.512;13.448;2023-02-12T04:59:30;10.00;87.50
63219;DHT22;49320;52.512;13.448;2023-02-12T05:01:57;10.00;86.90
63219;DHT22;49320;52.512;13.448;2023-02-12T05:04:23;10.00;87.10
63219;DHT22;49320;52.512;13.448;2023-02-12T05:06:50;9.90;87.20
63219;DHT22;49320;52.512;13.448;2023-02-12T05:09:19;10.00;87.40
63219;DHT22;49320;52.512;13.448;2023-02-12T05:11:46;9.90;86.80
63219;DHT22;49320;52.512;13.448;2023-02-12T05:19:08;10.00;86.80
63219;DHT22;49320;52.512;13.448;2023-02-12T05:21:36;10.10;88.30
63219;DHT22;49320;52.512;13.448;2023-02-12T05:24:04;10.10;87.50
63219;DHT22;49320;52.512;13.448;2023-02-12T05:26:31;10.10;87.20
63219;DHT22;49320;52.512;13.448;2023-02-12T05:28:59;10.10;87.40
63219;DHT22;49320;52.512;13.448;2023-02-12T05:31:26;10.10;87.30
63219;DHT22;49320;52.512;13.448;2023-02-12T05:33:53;10.20;88.10
63219;DHT22;49320;52.512;13.448;2023-02-12T05:36:22;10.10;87.10
63219;DHT22;49320;52.512;13.448;2023-02-12T05:38:50;10.20;87.20
63219;DHT22;49320;52.512;13.448;2023-02-12T05:41:20;10.30;86.40
63219;DHT22;49320;52.512;13.448;2023-02-12T05:43:49;10.20;87.00
63219;DHT22;49320;52.512;13.448;2023-02-12T05:46:18;10.30;86.70
63219;DHT22;49320;52.512;13.448;2023-02-12T05:48:46;10.30;86.50
63219;DHT22;49320;52.512;13.448;2023-02-12T05:51:16;10.30;87.10
63219;DHT22;49320;52.512;13.448;2023-02-12T05:53:48;10.30;87.10
63219;DHT22;49320;52.512;13.448;2023-02-12T05:56:21;10.40;87.10
63219;DHT22;49320;52.512;13.448;2023-02-12T05:59:07;10.40;87.00
63219;DHT22;49320;52.512;13.448;2023-02-12T06:01:39;10.40;86.50
63219;DHT22;49320;52.512;13.448;2023-02-12T06:04:12;10.40;86.90
63219;DHT22;49320;52.512;13.448;2023-02-12T06:06:41;10.40;86.80
63219;DHT22;49320;52.512;13.448;2023-02-12T06:09:10;10.40;86.70
63219;DHT22;49320;52.512;13.448;2023-02-12T06:11:38;10.50;86.40
63219;DHT22;49320;52.512;13.448;2023-02-12T06:14:09;10.50;86.70
63219;DHT22;49320;52.512;13.448;2023-02-12T06:16:39;10.50;86.30
63219;DHT22;49320;52.512;13.448;2023-02-12T06:19:06;10.50;86.60
63219;DHT22;49320;52.512;13.448;2023-02-12T06:21:33;10.50;86.60
63219;DHT22;49320;52.512;13.448;2023-02-12T06:24:00;10.50;86.60
63219;DHT22;49320;52.512;13.448;2023-02-12T06:26:27;10.50;86.20
63219;DHT22;49320;52.512;13.448;2023-02-12T06:28:54;10.50;86.60
63219;DHT22;49320;52.512;13.448;2023-02-12T06:31:29;10.40;87.10
63219;DHT22;49320;52.512;13.448;2023-02-12T06:34:00;10.50;86.60
63219;DHT22;49320;52.512;13.448;2023-02-12T06:36:29;10.60;87.20
63219;DHT22;49320;52.512;13.448;2023-02-12T06:38:56;10.50;85.70
63219;DHT22;49320;52.512;13.448;2023-02-12T06:41:23;10.60;86.30
63219;DHT22;49320;52.512;13.448;2023-02-12T06:43:50;10.60;85.90
63219;DHT22;49320;52.512;13.448;2023-02-12T06:46:17;10.60;86.80
63219;DHT22;49320;52.512;13.448;2023-02-12T06:48:44;10.50;85.70
63219;DHT22;49320;52.512;13.448;2023-02-12T06:51:16;10.70;87.10
63219;DHT22;49320;52.512;13.448;2023-02-12T06:53:47;10.60;86.40
63219;DHT22;49320;52.512;13.448;2023-02-12T06:56:14;10.60;86.20
63219;DHT22;49320;52.512;13.448;2023-02-12T06:58:43;10.60;86.70
63219;DHT22;49320;52.512;13.448;2023-02-12T07:01:14;10.60;85.50
63219;DHT22;49320;52.512;13.448;2023-02-12T07:03:54;10.60;85.90
63219;DHT22;49320;52.512;13.448;2023-02-12T07:06:24;10.60;85.80
63219;DHT22;49320;52.512;13.448;2023-02-12T07:08:52;10.60;85.00
63219;DHT22;49320;52.512;13.448;2023-02-12T07:11:24;10.60;85.00
63219;DHT22;49320;52.512;13.448;2023-02-12T07:13:52;10.60;85.40
63219;DHT22;49320;52.512;13.448;2023-02-12T07:16:19;10.60;85.20
63219;DHT22;49320;52.512;13.448;2023-02-12T07:21:15;10.50;84.30
63219;DHT22;49320;52.512;13.448;2023-02-12T07:23:47;10.60;85.10
63219;DHT22;49320;52.512;13.448;2023-02-12T07:26:17;10.50;85.70
63219;DHT22;49320;52.512;13.448;2023-02-12T07:28:45;10.50;85.00
63219;DHT22;49320;52.512;13.448;2023-02-12T07:31:15;10.50;84.30
63219;DHT22;49320;52.512;13.448;2023-02-12T07:33:44;10.70;85.60
63219;DHT22;49320;52.512;13.448;2023-02-12T07:36:13;10.50;85.00
63219;DHT22;49320;52.512;13.448;2023-02-12T07:38:42;10.60;84.30
63219;DHT22;49320;52.512;13.448;2023-02-12T07:41:11;10.60;85.00
63219;DHT22;49320;52.512;13.448;2023-02-12T07:43:41;10.50;84.80
63219;DHT22;49320;52.512;13.448;2023-02-12T07:46:15;10.70;84.90
63219;DHT22;49320;52.512;13.448;2023-02-12T07:48:44;10.70;84.80
63219;DHT22;49320;52.512;13.448;2023-02-12T07:51:14;10.70;84.80
63219;DHT22;49320;52.512;13.448;2023-02-12T07:53:44;10.80;85.50
63219;DHT22;49320;52.512;13.448;2023-02-12T07:56:17;10.70;84.60
63219;DHT22;49320;52.512;13.448;2023-02-12T07:58:46;10.70;84.60
63219;DHT22;49320;52.512;13.448;2023-02-12T08:01:29;10.80;83.70
63219;DHT22;49320;52.512;13.448;2023-02-12T08:03:58;10.80;84.40
63219;DHT22;49320;52.512;13.448;2023-02-12T08:06:30;10.80;83.70
63219;DHT22;49320;52.512;13.448;2023-02-12T08:09:02;10.80;84.40
63219;DHT22;49320;52.512;13.448;2023-02-12T08:11:33;10.90;84.40
63219;DHT22;49320;52.512;13.448;2023-02-12T08:14:00;10.90;84.30
63219;DHT22;49320;52.512;13.448;2023-02-12T08:16:27;10.90;84.20
63219;DHT22;49320;52.512;13.448;2023-02-12T08:18:56;11.00;84.10
63219;DHT22;49320;52.512;13.448;2023-02-12T08:21:40;11.00;82.90
63219;DHT22;49320;52.512;13.448;2023-02-12T08:24:08;11.10;83.90
63219;DHT22;49320;52.512;13.448;2023-02-12T08:26:37;11.00;83.90
63219;DHT22;49320;52.512;13.448;2023-02-12T08:29:10;11.10;83.60
63219;DHT22;49320;52.512;13.448;2023-02-12T08:31:44;11.20;83.70
63219;DHT22;49320;52.512;13.448;2023-02-12T08:34:20;11.20;83.40
63219;DHT22;49320;52.512;13.448;2023-02-12T08:36:50;11.20;83.20
63219;DHT22;49320;52.512;13.448;2023-02-12T08:39:23;11.20;82.90
63219;DHT22;49320;52.512;13.448;2023-02-12T08:41:53;11.30;83.10
63219;DHT22;49320;52.512;13.448;2023-02-12T08:44:21;11.30;83.10
63219;DHT22;49320;52.512;13.448;2023-02-12T08:46:50;11.30;82.50
63219;DHT22;49320;52.512;13.448;2023-02-12T08:49:20;11.30;82.80
63219;DHT22;49320;52.512;13.448;2023-02-12T08:51:54;11.40;82.40
63219;DHT22;49320;52.512;13.448;2023-02-12T08:54:24;11.40;82.30
63219;DHT22;49320;52.512;13.448;2023-02-12T08:56:57;11.40;82.30
63219;DHT22;49320;52.512;13.448;2023-02-12T08:59:25;11.40;82.10
63219;DHT22;49320;52.512;13.448;2023-02-12T09:01:53;11.40;81.20
63219;DHT22;49320;52.512;13.448;2023-02-12T09:04:25;11.50;82.40
63219;DHT22;49320;52.512;13.448;2023-02-12T09:06:54;11.50;80.90
63219;DHT22;49320;52.512;13.448;2023-02-12T09:09:21;11.50;82.10
63219;DHT22;49320;52.512;13.448;2023-02-12T09:11:49;11.60;82.10
63219;DHT22;49320;52.512;13.448;2023-02-12T09:14:17;11.60;81.70
63219;DHT22;49320;52.512;13.448;2023-02-12T09:16:52;11.60;81.40
63219;DHT22;49320;52.512;13.448;2023-02-12T09:19:19;11.60;81.30
63219;DHT22;49320;52.512;13.448;2023-02-12T09:21:50;11.60;80.00
63219;DHT22;49320;52.512;13.448;2023-02-12T09:24:21;11.60;81.00
63219;DHT22;49320;52.512;13.448;2023-02-12T09:26:48;11.60;81.00
63219;DHT22;49320;52.512;13.448;2023-02-12T09:29:14;11.60;81.10
63219;DHT22;49320;52.512;13.448;2023-02-12T09:31:41;11.60;81.30
63219;DHT22;49320;52.512;13.448;2023-02-12T09:34:08;11.70;81.60
63219;DHT22;49320;52.512;13.448;2023-02-12T09:36:35;11.50;81.00
63219;DHT22;49320;52.512;13.448;2023-02-12T09:39:02;11.70;81.80
63219;DHT22;49320;52.512;13.448;2023-02-12T09:41:54;11.80;81.90
63219;DHT22;49320;52.512;13.448;2023-02-12T09:44:53;11.80;80.80
63219;DHT22;49320;52.512;13.448;2023-02-12T09:47:51;11.80;81.50
63219;DHT22;49320;52.512;13.448;2023-02-12T09:50:51;11.90;81.50
63219;DHT22;49320;52.512;13.448;2023-02-12T09:53:21;11.90;81.30
63219;DHT22;49320;52.512;13.448;2023-02-12T09:55:50;12.00;81.20
63219;DHT22;49320;52.512;13.448;2023-02-12T09:58:28;12.00;81.60
63219;DHT22;49320;52.512;13.448;2023-02-12T10:01:00;12.10;80.60
63219;DHT22;49320;52.512;13.448;2023-02-12T10:03:35;12.10;81.60
63219;DHT22;49320;52.512;13.448;2023-02-12T10:06:08;12.30;81.60
63219;DHT22;49320;52.512;13.448;2023-02-12T10:12:02;12.40;80.10
63219;DHT22;49320;52.512;13.448;2023-02-12T10:14:50;12.40;80.70
63219;DHT22;49320;52.512;13.448;2023-02-12T10:20:39;12.40;80.90
63219;DHT22;49320;52.512;13.448;2023-02-12T10:23:24;12.40;79.50
63219;DHT22;49320;52.512;13.448;2023-02-12T10:25:57;12.50;79.60
63219;DHT22;49320;52.512;13.448;2023-02-12T10:28:37;12.50;80.50
63219;DHT22;49320;52.512;13.448;2023-02-12T10:34:17;12.50;79.70
63219;DHT22;49320;52.512;13.448;2023-02-12T10:36:48;12.50;79.50
63219;DHT22;49320;52.512;13.448;2023-02-12T10:39:32;12.60;80.80
63219;DHT22;49320;52.512;13.448;2023-02-12T10:42:18;12.70;80.40
63219;DHT22;49320;52.512;13.448;2023-02-12T10:44:51;12.70;80.20
63219;DHT22;49320;52.512;13.448;2023-02-12T10:47:23;12.80;79.40
63219;DHT22;49320;52.512;13.448;2023-02-12T10:49:57;12.70;79.70
63219;DHT22;49320;52.512;13.448;2023-02-12T10:52:35;12.80;79.50
63219;DHT22;49320;52.512;13.448;2023-02-12T10:57:56;12.70;79.50
63219;DHT22;49320;52.512;13.448;2023-02-12T11:00:34;14.60;80.30
63219;DHT22;49320;52.512;13.448;2023-02-12T11:05:42;12.60;80.10
63219;DHT22;49320;52.512;13.448;2023-02-12T11:08:32;12.60;80.10
63219;DHT22;49320;52.512;13.448;2023-02-12T11:11:22;12.50;80.00
63219;DHT22;49320;52.512;13.448;2023-02-12T11:14:16;12.50;81.20
63219;DHT22;49320;52.512;13.448;2023-02-12T11:16:55;12.40;80.60
63219;DHT22;49320;52.512;13.448;2023-02-12T11:19:26;12.40;80.80
63219;DHT22;49320;52.512;13.448;2023-02-12T11:22:06;12.40;81.30
63219;DHT22;49320;52.512;13.448;2023-02-12T11:24:45;12.10;81.80
63219;DHT22;49320;52.512;13.448;2023-02-12T11:29:43;12.40;81.70
63219;DHT22;49320;52.512;13.448;2023-02-12T11:32:17;12.40;81.90
63219;DHT22;49320;52.512;13.448;2023-02-12T11:37:41;12.30;81.00
63219;DHT22;49320;52.512;13.448;2023-02-12T11:42:57;12.30;81.80
63219;DHT22;49320;52.512;13.448;2023-02-12T11:48:01;12.20;81.10
63219;DHT22;49320;52.512;13.448;2023-02-12T11:50:30;12.10;81.20
63219;DHT22;49320;52.512;13.448;2023-02-12T11:53:01;12.20;82.00
63219;DHT22;49320;52.512;13.448;2023-02-12T11:55:35;12.10;81.20
63219;DHT22;49320;52.512;13.448;2023-02-12T11:58:16;12.20;81.90
63219;DHT22;49320;52.512;13.448;2023-02-12T12:01:01;12.20;81.30
63219;DHT22;49320;52.512;13.448;2023-02-12T12:09:47;12.10;81.90
63219;DHT22;49320;52.512;13.448;2023-02-12T12:12:40;12.10;81.50
63219;DHT22;49320;52.512;13.448;2023-02-12T12:15:28;12.10;82.00
63219;DHT22;49320;52.512;13.448;2023-02-12T12:21:40;12.10;81.50
63219;DHT22;49320;52.512;13.448;2023-02-12T12:24:23;12.20;81.80
63219;DHT22;49320;52.512;13.448;2023-02-12T12:26:59;12.20;82.50
63219;DHT22;49320;52.512;13.448;2023-02-12T12:29:56;12.20;82.20
63219;DHT22;49320;52.512;13.448;2023-02-12T12:32:30;12.20;82.20
63219;DHT22;49320;52.512;13.448;2023-02-12T12:34:57;12.30;81.90
63219;DHT22;49320;52.512;13.448;2023-02-12T12:37:53;12.30;81.80
63219;DHT22;49320;52.512;13.448;2023-02-12T12:43:47;12.30;80.60
63219;DHT22;49320;52.512;13.448;2023-02-12T12:46:53;12.30;80.80
63219;DHT22;49320;52.512;13.448;2023-02-12T12:52:51;12.20;81.50
63219;DHT22;49320;52.512;13.448;2023-02-12T13:05:43;12.20;79.80
63219;DHT22;49320;52.512;13.448;2023-02-12T13:08:41;12.30;80.10
63219;DHT22;49320;52.512;13.448;2023-02-12T13:12:06;12.30;80.00
63219;DHT22;49320;52.512;13.448;2023-02-12T13:15:02;12.30;79.70
63219;DHT22;49320;52.512;13.448;2023-02-12T13:17:41;12.30;80.00
63219;DHT22;49320;52.512;13.448;2023-02-12T13:20:29;12.30;80.00
63219;DHT22;49320;52.512;13.448;2023-02-12T13:23:10;12.50;80.30
63219;DHT22;49320;52.512;13.448;2023-02-12T13:29:24;12.50;79.20
63219;DHT22;49320;52.512;13.448;2023-02-12T13:31:58;12.50;79.20
63219;DHT22;49320;52.512;13.448;2023-02-12T13:34:38;12.60;79.50
63219;DHT22;49320;52.512;13.448;2023-02-12T13:37:17;13.70;80.10
63219;DHT22;49320;52.512;13.448;2023-02-12T13:39:52;12.70;79.20
63219;DHT22;49320;52.512;13.448;2023-02-12T13:48:19;12.80;79.00
63219;DHT22;49320;52.512;13.448;2023-02-12T13:56:51;13.00;77.20
63219;DHT22;49320;52.512;13.448;2023-02-12T14:02:05;13.00;76.60
63219;DHT22;49320;52.512;13.448;2023-02-12T14:07:20;13.10;76.90
63219;DHT22;49320;52.512;13.448;2023-02-12T14:12:27;13.20;76.00
63219;DHT22;49320;52.512;13.448;2023-02-12T14:15:33;13.20;75.20
63219;DHT22;49320;52.512;13.448;2023-02-12T14:23:45;13.40;76.80
63219;DHT22;49320;52.512;13.448;2023-02-12T14:26:14;13.10;75.90
63219;DHT22;49320;52.512;13.448;2023-02-12T14:33:51;13.10;76.60
63219;DHT22;49320;52.512;13.448;2023-02-12T14:36:40;13.10;75.70
63219;DHT22;49320;52.512;13.448;2023-02-12T14:41:46;13.10;76.20
63219;DHT22;49320;52.512;13.448;2023-02-12T14:46:58;13.20;76.00
63219;DHT22;49320;52.512;13.448;2023-02-12T14:49:35;13.10;75.80
63219;DHT22;49320;52.512;13.448;2023-02-12T14:52:26;13.20;76.40
63219;DHT22;49320;52.512;13.448;2023-02-12T14:55:25;13.30;76.30
63219;DHT22;49320;52.512;13.448;2023-02-12T14:58:01;13.30;75.90
63219;DHT22;49320;52.512;13.448;2023-02-12T15:03:17;13.30;76.40
63219;DHT22;49320;52.512;13.448;2023-02-12T15:05:55;13.40;76.10
63219;DHT22;49320;52.512;13.448;2023-02-12T15:08:47;13.40;76.20
63219;DHT22;49320;52.512;13.448;2023-02-12T15:14:04;13.40;76.20
63219;DHT22;49320;52.512;13.448;2023-02-12T15:17:01;13.30;75.90
63219;DHT22;49320;52.512;13.448;2023-02-12T15:19:49;13.40;75.80
63219;DHT22;49320;52.512;13.448;2023-02-12T15:22:37;13.40;76.00
63219;DHT22;49320;52.512;13.448;2023-02-12T15:25:29;13.40;76.00
63219;DHT22;49320;52.512;13.448;2023-02-12T15:28:03;13.30;75.70
63219;DHT22;49320;52.512;13.448;2023-02-12T15:30:42;13.30;75.10
63219;DHT22;49320;52.512;13.448;2023-02-12T15:33:21;13.30;76.30
63219;DHT22;49320;52.512;13.448;2023-02-12T15:35:53;13.30;75.00
63219;DHT22;49320;52.512;13.448;2023-02-12T15:38:34;13.30;76.30
63219;DHT22;49320;52.512;13.448;2023-02-12T15:41:08;13.30;75.90
63219;DHT22;49320;52.512;13.448;2023-02-12T15:43:48;13.30;76.20
63219;DHT22;49320;52.512;13.448;2023-02-12T15:46:16;13.20;75.40
63219;DHT22;49320;52.512;13.448;2023-02-12T15:48:44;13.30;76.20
63219;DHT22;49320;52.512;13.448;2023-02-12T15:51:34;13.20;76.20
63219;DHT22;49320;52.512;13.448;2023-02-12T15:54:05;13.20;76.00
63219;DHT22;49320;52.512;13.448;2023-02-12T15:56:33;13.20;75.20
63219;DHT22;49320;52.512;13.448;2023-02-12T16:01:32;13.20;75.40
63219;DHT22;49320;52.512;13.448;2023-02-12T16:04:02;13.20;76.50
63219;DHT22;49320;52.512;13.448;2023-02-12T16:06:33;13.20;76.30
63219;DHT22;49320;52.512;13.448;2023-02-12T16:09:22;13.10;76.00
63219;DHT22;49320;52.512;13.448;2023-02-12T16:11:55;13.10;75.60
63219;DHT22;49320;52.512;13.448;2023-02-12T16:14:35;13.10;76.00
63219;DHT22;49320;52.512;13.448;2023-02-12T16:17:32;13.00;75.50
63219;DHT22;49320;52.512;13.448;2023-02-12T16:20:24;13.00;75.50
63219;DHT22;49320;52.512;13.448;2023-02-12T16:22:55;13.00;75.50
63219;DHT22;49320;52.512;13.448;2023-02-12T16:25:27;13.00;75.40
63219;DHT22;49320;52.512;13.448;2023-02-12T16:28:26;12.90;75.60
63219;DHT22;49320;52.512;13.448;2023-02-12T16:31:07;12.80;75.10
63219;DHT22;49320;52.512;13.448;2023-02-12T16:39:03;12.80;75.80
63219;DHT22;49320;52.512;13.448;2023-02-12T16:41:51;12.70;75.00
63219;DHT22;49320;52.512;13.448;2023-02-12T16:44:24;12.70;75.80
63219;DHT22;49320;52.512;13.448;2023-02-12T16:46:55;12.70;76.00
63219;DHT22;49320;52.512;13.448;2023-02-12T16:49:25;12.60;76.00
63219;DHT22;49320;52.512;13.448;2023-02-12T16:51:54;12.60;76.10
63219;DHT22;49320;52.512;13.448;2023-02-12T16:54:44;12.60;75.30
63219;DHT22;49320;52.512;13.448;2023-02-12T16:57:11;12.60;76.30
63219;DHT22;49320;52.512;13.448;2023-02-12T16:59:38;12.60;76.30
63219;DHT22;49320;52.512;13.448;2023-02-12T17:02:12;12.50;76.40
63219;DHT22;49320;52.512;13.448;2023-02-12T17:04:41;12.50;76.40
63219;DHT22;49320;52.512;13.448;2023-02-12T17:07:22;12.50;76.50
63219;DHT22;49320;52.512;13.448;2023-02-12T17:09:52;12.50;76.50
63219;DHT22;49320;52.512;13.448;2023-02-12T17:12:19;12.50;76.50
63219;DHT22;49320;52.512;13.448;2023-02-12T17:14:46;12.10;75.90
63219;DHT22;49320;52.512;13.448;2023-02-12T17:17:13;12.40;75.90
63219;DHT22;49320;52.512;13.448;2023-02-12T17:19:40;12.40;76.50
63219;DHT22;49320;52.512;13.448;2023-02-12T17:22:19;12.40;76.50
63219;DHT22;49320;52.512;13.448;2023-02-12T17:24:48;12.40;76.50
63219;DHT22;49320;52.512;13.448;2023-02-12T17:27:17;12.40;75.90
63219;DHT22;49320;52.512;13.448;2023-02-12T17:29:45;12.40;76.70
63219;DHT22;49320;52.512;13.448;2023-02-12T17:32:12;12.30;76.50
63219;DHT22;49320;52.512;13.448;2023-02-12T17:34:39;12.30;76.90
63219;DHT22;49320;52.512;13.448;2023-02-12T17:37:15;12.30;76.90
63219;DHT22;49320;52.512;13.448;2023-02-12T17:39:42;12.30;77.00
63219;DHT22;49320;52.512;13.448;2023-02-12T17:42:09;12.30;77.00
63219;DHT22;49320;52.512;13.448;2023-02-12T17:44:37;12.30;77.10
63219;DHT22;49320;52.512;13.448;2023-02-12T17:47:03;12.20;77.30
63219;DHT22;49320;52.512;13.448;2023-02-12T17:49:30;12.30;77.50
63219;DHT22;49320;52.512;13.448;2023-02-12T17:51:57;12.20;77.60
63219;DHT22;49320;52.512;13.448;2023-02-12T17:54:24;12.20;77.80
63219;DHT22;49320;52.512;13.448;2023-02-12T17:56:50;12.20;77.90
63219;DHT22;49320;52.512;13.448;2023-02-12T17:59:18;12.10;78.00
63219;DHT22;49320;52.512;13.448;2023-02-12T18:01:45;12.20;78.40
63219;DHT22;49320;52.512;13.448;2023-02-12T18:04:11;12.20;78.60
63219;DHT22;49320;52.512;13.448;2023-02-12T18:09:05;12.20;78.40
63219;DHT22;49320;52.512;13.448;2023-02-12T18:11:32;12.20;79.20
63219;DHT22;49320;52.512;13.448;2023-02-12T18:13:59;12.20;79.30
63219;DHT22;49320;52.512;13.448;2023-02-12T18:16:30;12.20;79.50
63219;DHT22;49320;52.512;13.448;2023-02-12T18:18:59;12.20;79.80
63219;DHT22;49320;52.512;13.448;2023-02-12T18:21:29;12.20;80.00
63219;DHT22;49320;52.512;13.448;2023-02-12T18:23:56;12.20;80.10
63219;DHT22;49320;52.512;13.448;2023-02-12T18:26:23;12.20;80.20
63219;DHT22;49320;52.512;13.448;2023-02-12T18:28:50;12.20;80.30
63219;DHT22;49320;52.512;13.448;2023-02-12T18:31:18;12.20;80.40
63219;DHT22;49320;52.512;13.448;2023-02-12T18:33:46;12.20;80.70
63219;DHT22;49320;52.512;13.448;2023-02-12T18:36:15;12.20;80.70
63219;DHT22;49320;52.512;13.448;2023-02-12T18:38:44;12.10;81.00